sensor_id;sensor_type;location;lat;lon;timestamp;P1;durP1;ratioP1;P2;durP2;ratioP2
48963;SDS011;34776;48.180;16.420;2023-04-06T00:01:07;9.27;;;5.38;;
48963;SDS011;34776;48.180;16.420;2023-04-06T00:03:33;7.88;;;4.57;;
48963;SDS011;34776;48.180;16.420;2023-04-06T00:05:59;8.55;;;4.63;;
48963;SDS011;34776;48.180;16.420;2023-04-06T00:08:25;4.70;;;4.03;;
48963;SDS011;34776;48.180;16.420;2023-04-06T00:10:51;6.57;;;4.40;;
48963;SDS011;34776;48.180;16.420;2023-04-06T00:13:16;8.38;;;4.70;;
48963;SDS011;34776;48.180;16.420;2023-04-06T00:15:42;7.47;;;4.32;;
48963;SDS011;34776;48.180;16.420;2023-04-06T00:18:07;7.90;;;4.72;;
48963;SDS011;34776;48.180;16.420;2023-04-06T00:20:32;5.38;;;4.13;;
48963;SDS011;34776;48.180;16.420;2023-04-06T00:22:58;6.25;;;4.22;;
48963;SDS011;34776;48.180;16.420;2023-04-06T00:25:23;6.78;;;4.75;;
48963;SDS011;34776;48.180;16.420;2023-04-06T00:27:49;9.20;;;4.63;;
48963;SDS011;34776;48.180;16.420;2023-04-06T00:30:14;6.47;;;4.47;;
48963;SDS011;34776;48.180;16.420;2023-04-06T00:32:39;6.75;;;5.07;;
48963;SDS011;34776;48.180;16.420;2023-04-06T00:35:05;9.23;;;4.68;;
48963;SDS011;34776;48.180;16.420;2023-04-06T00:37:31;9.27;;;4.78;;
48963;SDS011;34776;48.180;16.420;2023-04-06T00:39:57;8.48;;;4.78;;
48963;SDS011;34776;48.180;16.420;2023-04-06T00:42:22;5.93;;;4.43;;
48963;SDS011;34776;48.180;16.420;2023-04-06T00:44:54;9.55;;;4.97;;
48963;SDS011;34776;48.180;16.420;2023-04-06T00:47:21;6.43;;;4.72;;
48963;SDS011;34776;48.180;16.420;2023-04-06T00:49:48;5.63;;;4.55;;
48963;SDS011;34776;48.180;16.420;2023-04-06T00:52:13;6.15;;;4.53;;
48963;SDS011;34776;48.180;16.420;2023-04-06T00:54:39;7.53;;;5.13;;
48963;SDS011;34776;48.180;16.420;2023-04-06T00:57:05;11.93;;;6.13;;
48963;SDS011;34776;48.180;16.420;2023-04-06T00:59:30;7.00;;;5.00;;
48963;SDS011;34776;48.180;16.420;2023-04-06T01:01:56;6.90;;;5.03;;
48963;SDS011;34776;48.180;16.420;2023-04-06T01:04:21;9.45;;;5.80;;
48963;SDS011;34776;48.180;16.420;2023-04-06T01:06:50;11.32;;;5.00;;
48963;SDS011;34776;48.180;16.420;2023-04-06T01:09:16;7.18;;;5.50;;
48963;SDS011;34776;48.180;16.420;2023-04-06T01:11:42;6.75;;;5.05;;
48963;SDS011;34776;48.180;16.420;2023-04-06T01:14:07;7.70;;;5.45;;
48963;SDS011;34776;48.180;16.420;2023-04-06T01:16:33;6.63;;;5.18;;
48963;SDS011;34776;48.180;16.420;2023-04-06T01:18:59;7.93;;;5.82;;
48963;SDS011;34776;48.180;16.420;2023-04-06T01:21:25;10.43;;;5.93;;
48963;SDS011;34776;48.180;16.420;2023-04-06T01:23:50;6.32;;;4.72;;
48963;SDS011;34776;48.180;16.420;2023-04-06T01:26:16;11.57;;;5.72;;
48963;SDS011;34776;48.180;16.420;2023-04-06T01:28:41;7.72;;;5.20;;
48963;SDS011;34776;48.180;16.420;2023-04-06T01:31:07;9.30;;;5.97;;
48963;SDS011;34776;48.180;16.420;2023-04-06T01:33:33;9.48;;;5.25;;
48963;SDS011;34776;48.180;16.420;2023-04-06T01:35:59;7.22;;;5.38;;
48963;SDS011;34776;48.180;16.420;2023-04-06T01:38:25;8.45;;;5.35;;
48963;SDS011;34776;48.180;16.420;2023-04-06T01:40:51;9.88;;;6.45;;
48963;SDS011;34776;48.180;16.420;2023-04-06T01:43:17;8.02;;;6.07;;
48963;SDS011;34776;48.180;16.420;2023-04-06T01:45:42;8.95;;;6.00;;
48963;SDS011;34776;48.180;16.420;2023-04-06T01:48:07;7.43;;;5.53;;
48963;SDS011;34776;48.180;16.420;2023-04-06T01:50:33;8.35;;;5.43;;
48963;SDS011;34776;48.180;16.420;2023-04-06T01:52:58;7.40;;;5.50;;
48963;SDS011;34776;48.180;16.420;2023-04-06T01:55:24;7.13;;;4.65;;
48963;SDS011;34776;48.180;16.420;2023-04-06T01:57:49;9.18;;;5.57;;
48963;SDS011;34776;48.180;16.420;2023-04-06T02:00:15;7.43;;;5.82;;
48963;SDS011;34776;48.180;16.420;2023-04-06T02:02:41;7.47;;;5.43;;
48963;SDS011;34776;48.180;16.420;2023-04-06T02:05:06;9.07;;;5.70;;
48963;SDS011;34776;48.180;16.420;2023-04-06T02:07:32;9.35;;;6.43;;
48963;SDS011;34776;48.180;16.420;2023-04-06T02:09:57;8.55;;;5.32;;
48963;SDS011;34776;48.180;16.420;2023-04-06T02:12:23;6.03;;;5.43;;
48963;SDS011;34776;48.180;16.420;2023-04-06T02:14:48;7.00;;;5.13;;
48963;SDS011;34776;48.180;16.420;2023-04-06T02:17:14;8.43;;;5.05;;
48963;SDS011;34776;48.180;16.420;2023-04-06T02:19:40;7.20;;;4.63;;
48963;SDS011;34776;48.180;16.420;2023-04-06T02:22:05;7.28;;;4.93;;
48963;SDS011;34776;48.180;16.420;2023-04-06T02:24:31;6.32;;;4.90;;
48963;SDS011;34776;48.180;16.420;2023-04-06T02:26:56;9.50;;;5.40;;
48963;SDS011;34776;48.180;16.420;2023-04-06T02:29:21;7.72;;;4.85;;
48963;SDS011;34776;48.180;16.420;2023-04-06T02:31:47;8.75;;;5.10;;
48963;SDS011;34776;48.180;16.420;2023-04-06T02:34:12;6.32;;;5.15;;
48963;SDS011;34776;48.180;16.420;2023-04-06T02:36:42;7.57;;;5.10;;
48963;SDS011;34776;48.180;16.420;2023-04-06T02:39:11;8.27;;;5.43;;
48963;SDS011;34776;48.180;16.420;2023-04-06T02:41:37;8.35;;;5.32;;
48963;SDS011;34776;48.180;16.420;2023-04-06T02:44:03;9.23;;;5.03;;
48963;SDS011;34776;48.180;16.420;2023-04-06T02:46:29;6.50;;;4.60;;
48963;SDS011;34776;48.180;16.420;2023-04-06T02:48:54;6.68;;;4.93;;
48963;SDS011;34776;48.180;16.420;2023-04-06T02:51:20;6.32;;;4.32;;
48963;SDS011;34776;48.180;16.420;2023-04-06T02:53:45;6.85;;;4.43;;
48963;SDS011;34776;48.180;16.420;2023-04-06T02:56:11;8.50;;;4.80;;
48963;SDS011;34776;48.180;16.420;2023-04-06T02:58:36;6.80;;;4.80;;
48963;SDS011;34776;48.180;16.420;2023-04-06T03:01:02;6.30;;;5.10;;
48963;SDS011;34776;48.180;16.420;2023-04-06T03:03:28;6.78;;;5.07;;
48963;SDS011;34776;48.180;16.420;2023-04-06T03:05:53;7.72;;;5.70;;
48963;SDS011;34776;48.180;16.420;2023-04-06T03:08:21;7.45;;;5.50;;
48963;SDS011;34776;48.180;16.420;2023-04-06T03:10:48;6.68;;;4.60;;
48963;SDS011;34776;48.180;16.420;2023-04-06T03:13:14;7.22;;;5.25;;
48963;SDS011;34776;48.180;16.420;2023-04-06T03:15:39;6.95;;;4.50;;
48963;SDS011;34776;48.180;16.420;2023-04-06T03:18:04;7.85;;;5.43;;
48963;SDS011;34776;48.180;16.420;2023-04-06T03:20:30;9.07;;;6.00;;
48963;SDS011;34776;48.180;16.420;2023-04-06T03:22:55;9.32;;;5.13;;
48963;SDS011;34776;48.180;16.420;2023-04-06T03:25:21;8.07;;;5.60;;
48963;SDS011;34776;48.180;16.420;2023-04-06T03:27:46;11.00;;;6.10;;
48963;SDS011;34776;48.180;16.420;2023-04-06T03:30:11;6.88;;;5.30;;
48963;SDS011;34776;48.180;16.420;2023-04-06T03:32:37;7.45;;;4.88;;
48963;SDS011;34776;48.180;16.420;2023-04-06T03:35:02;6.93;;;4.75;;
48963;SDS011;34776;48.180;16.420;2023-04-06T03:37:28;7.82;;;4.65;;
48963;SDS011;34776;48.180;16.420;2023-04-06T03:39:53;8.35;;;4.97;;
48963;SDS011;34776;48.180;16.420;2023-04-06T03:42:19;6.93;;;5.13;;
48963;SDS011;34776;48.180;16.420;2023-04-06T03:44:44;9.05;;;5.72;;
48963;SDS011;34776;48.180;16.420;2023-04-06T03:47:10;9.60;;;5.53;;
48963;SDS011;34776;48.180;16.420;2023-04-06T03:49:35;11.77;;;5.78;;
48963;SDS011;34776;48.180;16.420;2023-04-06T03:52:00;7.18;;;5.25;;
48963;SDS011;34776;48.180;16.420;2023-04-06T03:54:26;7.75;;;5.78;;
48963;SDS011;34776;48.180;16.420;2023-04-06T03:56:51;8.02;;;5.85;;
48963;SDS011;34776;48.180;16.420;2023-04-06T03:59:17;6.70;;;5.60;;
48963;SDS011;34776;48.180;16.420;2023-04-06T04:01:42;7.13;;;5.68;;
48963;SDS011;34776;48.180;16.420;2023-04-06T04:04:07;8.18;;;5.30;;
48963;SDS011;34776;48.180;16.420;2023-04-06T04:06:33;7.45;;;5.70;;
48963;SDS011;34776;48.180;16.420;2023-04-06T04:08:58;8.05;;;5.90;;
48963;SDS011;34776;48.180;16.420;2023-04-06T04:11:24;8.20;;;5.40;;
48963;SDS011;34776;48.180;16.420;2023-04-06T04:13:49;9.15;;;5.55;;
48963;SDS011;34776;48.180;16.420;2023-04-06T04:16:15;10.73;;;5.68;;
48963;SDS011;34776;48.180;16.420;2023-04-06T04:18:40;9.30;;;6.15;;
48963;SDS011;34776;48.180;16.420;2023-04-06T04:21:08;6.95;;;5.55;;
48963;SDS011;34776;48.180;16.420;2023-04-06T04:23:33;7.65;;;5.90;;
48963;SDS011;34776;48.180;16.420;2023-04-06T04:25:59;7.53;;;5.40;;
48963;SDS011;34776;48.180;16.420;2023-04-06T04:28:24;10.80;;;6.50;;
48963;SDS011;34776;48.180;16.420;2023-04-06T04:30:50;7.30;;;5.38;;
48963;SDS011;34776;48.180;16.420;2023-04-06T04:33:15;9.68;;;6.47;;
48963;SDS011;34776;48.180;16.420;2023-04-06T04:35:40;6.68;;;5.72;;
48963;SDS011;34776;48.180;16.420;2023-04-06T04:38:06;10.88;;;5.90;;
48963;SDS011;34776;48.180;16.420;2023-04-06T04:40:31;8.07;;;5.65;;
48963;SDS011;34776;48.180;16.420;2023-04-06T04:42:57;7.72;;;5.97;;
48963;SDS011;34776;48.180;16.420;2023-04-06T04:45:22;11.30;;;5.82;;
48963;SDS011;34776;48.180;16.420;2023-04-06T04:47:47;13.88;;;7.78;;
48963;SDS011;34776;48.180;16.420;2023-04-06T04:50:13;10.05;;;6.57;;
48963;SDS011;34776;48.180;16.420;2023-04-06T04:52:38;8.68;;;5.25;;
48963;SDS011;34776;48.180;16.420;2023-04-06T04:55:03;9.65;;;5.70;;
48963;SDS011;34776;48.180;16.420;2023-04-06T04:57:29;9.18;;;6.28;;
48963;SDS011;34776;48.180;16.420;2023-04-06T04:59:55;8.55;;;5.45;;
48963;SDS011;34776;48.180;16.420;2023-04-06T05:02:20;9.23;;;5.60;;
48963;SDS011;34776;48.180;16.420;2023-04-06T05:04:45;8.90;;;5.68;;
48963;SDS011;34776;48.180;16.420;2023-04-06T05:07:11;10.05;;;6.22;;
48963;SDS011;34776;48.180;16.420;2023-04-06T05:09:36;8.23;;;6.03;;
48963;SDS011;34776;48.180;16.420;2023-04-06T05:12:02;10.82;;;6.85;;
48963;SDS011;34776;48.180;16.420;2023-04-06T05:14:27;13.18;;;7.10;;
48963;SDS011;34776;48.180;16.420;2023-04-06T05:16:53;11.23;;;7.00;;
48963;SDS011;34776;48.180;16.420;2023-04-06T05:19:19;13.68;;;7.93;;
48963;SDS011;34776;48.180;16.420;2023-04-06T05:21:44;9.18;;;6.95;;
48963;SDS011;34776;48.180;16.420;2023-04-06T05:24:10;10.63;;;6.63;;
48963;SDS011;34776;48.180;16.420;2023-04-06T05:26:35;12.52;;;8.05;;
48963;SDS011;34776;48.180;16.420;2023-04-06T05:29:01;9.82;;;7.72;;
48963;SDS011;34776;48.180;16.420;2023-04-06T05:31:26;11.85;;;6.90;;
48963;SDS011;34776;48.180;16.420;2023-04-06T05:33:52;9.23;;;6.90;;
48963;SDS011;34776;48.180;16.420;2023-04-06T05:36:17;17.60;;;11.40;;
48963;SDS011;34776;48.180;16.420;2023-04-06T05:38:43;12.02;;;7.65;;
48963;SDS011;34776;48.180;16.420;2023-04-06T05:41:08;14.25;;;7.45;;
48963;SDS011;34776;48.180;16.420;2023-04-06T05:43:33;17.45;;;8.25;;
48963;SDS011;34776;48.180;16.420;2023-04-06T05:45:59;14.75;;;7.68;;
48963;SDS011;34776;48.180;16.420;2023-04-06T05:48:24;14.55;;;6.75;;
48963;SDS011;34776;48.180;16.420;2023-04-06T05:50:51;11.63;;;7.00;;
48963;SDS011;34776;48.180;16.420;2023-04-06T05:53:16;19.13;;;7.28;;
48963;SDS011;34776;48.180;16.420;2023-04-06T05:55:42;17.23;;;7.65;;
48963;SDS011;34776;48.180;16.420;2023-04-06T05:58:07;18.60;;;7.82;;
48963;SDS011;34776;48.180;16.420;2023-04-06T06:00:32;28.38;;;7.90;;
48963;SDS011;34776;48.180;16.420;2023-04-06T06:02:58;17.75;;;7.05;;
48963;SDS011;34776;48.180;16.420;2023-04-06T06:05:23;21.30;;;7.50;;
48963;SDS011;34776;48.180;16.420;2023-04-06T06:07:49;37.65;;;8.25;;
48963;SDS011;34776;48.180;16.420;2023-04-06T06:10:14;44.63;;;8.07;;
48963;SDS011;34776;48.180;16.420;2023-04-06T06:12:40;19.17;;;8.93;;
48963;SDS011;34776;48.180;16.420;2023-04-06T06:15:06;15.43;;;6.75;;
48963;SDS011;34776;48.180;16.420;2023-04-06T06:17:32;23.30;;;7.90;;
48963;SDS011;34776;48.180;16.420;2023-04-06T06:19:57;35.33;;;9.27;;
48963;SDS011;34776;48.180;16.420;2023-04-06T06:22:22;49.30;;;9.23;;
48963;SDS011;34776;48.180;16.420;2023-04-06T06:24:48;15.90;;;7.28;;
48963;SDS011;34776;48.180;16.420;2023-04-06T06:27:14;14.13;;;7.28;;
48963;SDS011;34776;48.180;16.420;2023-04-06T06:29:40;12.30;;;7.53;;
48963;SDS011;34776;48.180;16.420;2023-04-06T06:32:06;11.93;;;7.03;;
48963;SDS011;34776;48.180;16.420;2023-04-06T06:34:33;10.68;;;6.75;;
48963;SDS011;34776;48.180;16.420;2023-04-06T06:36:59;12.15;;;7.72;;
48963;SDS011;34776;48.180;16.420;2023-04-06T06:39:25;15.65;;;9.65;;
48963;SDS011;34776;48.180;16.420;2023-04-06T06:41:51;15.98;;;9.38;;
48963;SDS011;34776;48.180;16.420;2023-04-06T06:44:16;15.13;;;8.88;;
48963;SDS011;34776;48.180;16.420;2023-04-06T06:46:42;13.63;;;7.43;;
48963;SDS011;34776;48.180;16.420;2023-04-06T06:49:07;11.85;;;7.20;;
48963;SDS011;34776;48.180;16.420;2023-04-06T06:51:33;15.55;;;8.10;;
48963;SDS011;34776;48.180;16.420;2023-04-06T06:53:58;18.73;;;9.05;;
48963;SDS011;34776;48.180;16.420;2023-04-06T06:56:24;10.55;;;7.95;;
48963;SDS011;34776;48.180;16.420;2023-04-06T06:58:51;22.60;;;8.57;;
48963;SDS011;34776;48.180;16.420;2023-04-06T07:01:17;20.15;;;8.90;;
48963;SDS011;34776;48.180;16.420;2023-04-06T07:03:42;12.70;;;7.85;;
48963;SDS011;34776;48.180;16.420;2023-04-06T07:06:07;17.52;;;9.30;;
48963;SDS011;34776;48.180;16.420;2023-04-06T07:08:33;9.82;;;7.20;;
48963;SDS011;34776;48.180;16.420;2023-04-06T07:10:58;18.95;;;8.45;;
48963;SDS011;34776;48.180;16.420;2023-04-06T07:13:24;13.20;;;7.07;;
48963;SDS011;34776;48.180;16.420;2023-04-06T07:15:51;10.70;;;6.60;;
48963;SDS011;34776;48.180;16.420;2023-04-06T07:18:17;10.88;;;6.28;;
48963;SDS011;34776;48.180;16.420;2023-04-06T07:20:44;32.40;;;7.18;;
48963;SDS011;34776;48.180;16.420;2023-04-06T07:23:10;21.65;;;6.57;;
48963;SDS011;34776;48.180;16.420;2023-04-06T07:25:35;10.50;;;6.43;;
48963;SDS011;34776;48.180;16.420;2023-04-06T07:28:01;623.67;;;61.78;;
48963;SDS011;34776;48.180;16.420;2023-04-06T07:30:28;489.38;;;45.88;;
48963;SDS011;34776;48.180;16.420;2023-04-06T07:32:54;174.65;;;17.30;;
48963;SDS011;34776;48.180;16.420;2023-04-06T07:35:23;19.15;;;6.45;;
48963;SDS011;34776;48.180;16.420;2023-04-06T07:37:48;7.72;;;5.53;;
48963;SDS011;34776;48.180;16.420;2023-04-06T07:40:14;10.93;;;6.13;;
48963;SDS011;34776;48.180;16.420;2023-04-06T07:42:39;7.20;;;4.70;;
48963;SDS011;34776;48.180;16.420;2023-04-06T07:45:05;10.98;;;5.60;;
48963;SDS011;34776;48.180;16.420;2023-04-06T07:47:31;11.85;;;5.10;;
48963;SDS011;34776;48.180;16.420;2023-04-06T07:49:56;10.63;;;5.95;;
48963;SDS011;34776;48.180;16.420;2023-04-06T07:52:22;10.50;;;4.32;;
48963;SDS011;34776;48.180;16.420;2023-04-06T07:54:47;6.25;;;4.47;;
48963;SDS011;34776;48.180;16.420;2023-04-06T07:57:14;6.53;;;4.50;;
48963;SDS011;34776;48.180;16.420;2023-04-06T07:59:39;9.18;;;4.50;;
48963;SDS011;34776;48.180;16.420;2023-04-06T08:02:05;9.40;;;4.88;;
48963;SDS011;34776;48.180;16.420;2023-04-06T08:04:31;10.48;;;4.82;;
48963;SDS011;34776;48.180;16.420;2023-04-06T08:06:56;9.02;;;4.50;;
48963;SDS011;34776;48.180;16.420;2023-04-06T08:09:22;5.78;;;3.88;;
48963;SDS011;34776;48.180;16.420;2023-04-06T08:11:47;6.80;;;4.18;;
48963;SDS011;34776;48.180;16.420;2023-04-06T08:14:13;8.82;;;4.25;;
48963;SDS011;34776;48.180;16.420;2023-04-06T08:16:40;17.30;;;4.93;;
48963;SDS011;34776;48.180;16.420;2023-04-06T08:19:05;5.53;;;3.55;;
48963;SDS011;34776;48.180;16.420;2023-04-06T08:21:34;9.32;;;4.43;;
48963;SDS011;34776;48.180;16.420;2023-04-06T08:24:00;20.45;;;5.75;;
48963;SDS011;34776;48.180;16.420;2023-04-06T08:26:26;8.60;;;4.60;;
48963;SDS011;34776;48.180;16.420;2023-04-06T08:28:52;9.65;;;4.75;;
48963;SDS011;34776;48.180;16.420;2023-04-06T08:31:17;7.20;;;4.13;;
48963;SDS011;34776;48.180;16.420;2023-04-06T08:33:42;9.55;;;4.00;;
48963;SDS011;34776;48.180;16.420;2023-04-06T08:36:11;5.72;;;3.65;;
48963;SDS011;34776;48.180;16.420;2023-04-06T08:38:39;14.13;;;5.10;;
48963;SDS011;34776;48.180;16.420;2023-04-06T08:41:09;7.38;;;4.95;;
48963;SDS011;34776;48.180;16.420;2023-04-06T08:43:41;11.32;;;5.13;;
48963;SDS011;34776;48.180;16.420;2023-04-06T08:46:09;8.07;;;4.60;;
48963;SDS011;34776;48.180;16.420;2023-04-06T08:48:36;7.40;;;4.70;;
48963;SDS011;34776;48.180;16.420;2023-04-06T08:51:03;8.88;;;4.28;;
48963;SDS011;34776;48.180;16.420;2023-04-06T08:53:29;32.47;;;5.93;;
48963;SDS011;34776;48.180;16.420;2023-04-06T08:55:55;17.20;;;5.25;;
48963;SDS011;34776;48.180;16.420;2023-04-06T08:58:23;15.63;;;5.45;;
48963;SDS011;34776;48.180;16.420;2023-04-06T09:00:50;14.80;;;4.43;;
48963;SDS011;34776;48.180;16.420;2023-04-06T09:03:17;6.20;;;4.43;;
48963;SDS011;34776;48.180;16.420;2023-04-06T09:05:44;6.30;;;4.03;;
48963;SDS011;34776;48.180;16.420;2023-04-06T09:08:12;6.95;;;3.90;;
48963;SDS011;34776;48.180;16.420;2023-04-06T09:10:40;7.68;;;3.85;;
48963;SDS011;34776;48.180;16.420;2023-04-06T09:13:06;7.90;;;4.28;;
48963;SDS011;34776;48.180;16.420;2023-04-06T09:15:32;11.80;;;4.00;;
48963;SDS011;34776;48.180;16.420;2023-04-06T09:17:58;11.25;;;4.75;;
48963;SDS011;34776;48.180;16.420;2023-04-06T09:20:24;24.95;;;5.80;;
48963;SDS011;34776;48.180;16.420;2023-04-06T09:22:51;7.32;;;3.85;;
48963;SDS011;34776;48.180;16.420;2023-04-06T09:25:20;10.93;;;5.20;;
48963;SDS011;34776;48.180;16.420;2023-04-06T09:27:48;18.90;;;6.68;;
48963;SDS011;34776;48.180;16.420;2023-04-06T09:30:22;12.48;;;4.82;;
48963;SDS011;34776;48.180;16.420;2023-04-06T09:32:50;20.45;;;5.45;;
48963;SDS011;34776;48.180;16.420;2023-04-06T09:35:22;21.67;;;4.97;;
48963;SDS011;34776;48.180;16.420;2023-04-06T09:37:49;11.75;;;3.85;;
48963;SDS011;34776;48.180;16.420;2023-04-06T09:40:15;17.02;;;4.28;;
48963;SDS011;34776;48.180;16.420;2023-04-06T09:42:42;6.95;;;3.22;;
48963;SDS011;34776;48.180;16.420;2023-04-06T09:45:11;13.50;;;4.10;;
48963;SDS011;34776;48.180;16.420;2023-04-06T09:47:37;6.50;;;3.85;;
48963;SDS011;34776;48.180;16.420;2023-04-06T09:50:05;5.45;;;4.05;;
48963;SDS011;34776;48.180;16.420;2023-04-06T09:52:37;44.85;;;6.20;;
48963;SDS011;34776;48.180;16.420;2023-04-06T09:55:06;5.50;;;3.40;;
48963;SDS011;34776;48.180;16.420;2023-04-06T09:57:47;28.17;;;4.18;;
48963;SDS011;34776;48.180;16.420;2023-04-06T10:00:17;7.45;;;3.97;;
48963;SDS011;34776;48.180;16.420;2023-04-06T10:02:51;17.75;;;4.13;;
48963;SDS011;34776;48.180;16.420;2023-04-06T10:07:56;6.13;;;3.00;;
48963;SDS011;34776;48.180;16.420;2023-04-06T10:10:24;4.97;;;3.50;;
48963;SDS011;34776;48.180;16.420;2023-04-06T10:12:49;5.13;;;3.28;;
48963;SDS011;34776;48.180;16.420;2023-04-06T10:15:15;11.00;;;3.78;;
48963;SDS011;34776;48.180;16.420;2023-04-06T10:17:42;6.75;;;3.28;;
48963;SDS011;34776;48.180;16.420;2023-04-06T10:20:12;12.90;;;3.22;;
48963;SDS011;34776;48.180;16.420;2023-04-06T10:23:08;5.43;;;2.50;;
48963;SDS011;34776;48.180;16.420;2023-04-06T10:25:34;10.77;;;3.00;;
48963;SDS011;34776;48.180;16.420;2023-04-06T10:28:04;8.70;;;3.13;;
48963;SDS011;34776;48.180;16.420;2023-04-06T10:30:31;7.65;;;3.03;;
48963;SDS011;34776;48.180;16.420;2023-04-06T10:32:58;3.35;;;2.60;;
48963;SDS011;34776;48.180;16.420;2023-04-06T10:35:23;5.40;;;3.10;;
48963;SDS011;34776;48.180;16.420;2023-04-06T10:37:51;5.35;;;3.28;;
48963;SDS011;34776;48.180;16.420;2023-04-06T10:40:27;10.00;;;2.88;;
48963;SDS011;34776;48.180;16.420;2023-04-06T10:42:53;4.50;;;2.90;;
48963;SDS011;34776;48.180;16.420;2023-04-06T10:45:24;13.40;;;3.13;;
48963;SDS011;34776;48.180;16.420;2023-04-06T10:47:54;14.32;;;3.55;;
48963;SDS011;34776;48.180;16.420;2023-04-06T10:50:20;7.43;;;3.80;;
48963;SDS011;34776;48.180;16.420;2023-04-06T10:52:46;23.08;;;4.20;;
48963;SDS011;34776;48.180;16.420;2023-04-06T10:55:13;11.60;;;3.28;;
48963;SDS011;34776;48.180;16.420;2023-04-06T10:57:40;22.58;;;4.03;;
48963;SDS011;34776;48.180;16.420;2023-04-06T11:00:06;6.53;;;3.00;;
48963;SDS011;34776;48.180;16.420;2023-04-06T11:02:35;4.72;;;3.08;;
48963;SDS011;34776;48.180;16.420;2023-04-06T11:05:04;13.68;;;3.53;;
48963;SDS011;34776;48.180;16.420;2023-04-06T11:07:29;13.75;;;4.38;;
48963;SDS011;34776;48.180;16.420;2023-04-06T11:09:55;11.93;;;3.25;;
48963;SDS011;34776;48.180;16.420;2023-04-06T11:12:25;14.23;;;4.18;;
48963;SDS011;34776;48.180;16.420;2023-04-06T11:14:52;22.20;;;4.15;;
48963;SDS011;34776;48.180;16.420;2023-04-06T11:17:26;33.10;;;5.10;;
48963;SDS011;34776;48.180;16.420;2023-04-06T11:19:52;9.63;;;3.50;;
48963;SDS011;34776;48.180;16.420;2023-04-06T11:22:18;10.88;;;3.63;;
48963;SDS011;34776;48.180;16.420;2023-04-06T11:24:43;4.85;;;3.08;;
48963;SDS011;34776;48.180;16.420;2023-04-06T11:27:09;11.82;;;3.25;;
48963;SDS011;34776;48.180;16.420;2023-04-06T11:29:34;6.18;;;2.95;;
48963;SDS011;34776;48.180;16.420;2023-04-06T11:32:03;10.98;;;3.53;;
48963;SDS011;34776;48.180;16.420;2023-04-06T11:34:34;10.38;;;3.00;;
48963;SDS011;34776;48.180;16.420;2023-04-06T11:37:02;20.63;;;3.50;;
48963;SDS011;34776;48.180;16.420;2023-04-06T11:39:32;7.60;;;4.18;;
48963;SDS011;34776;48.180;16.420;2023-04-06T11:42:05;16.73;;;3.58;;
48963;SDS011;34776;48.180;16.420;2023-04-06T11:44:31;17.95;;;4.10;;
48963;SDS011;34776;48.180;16.420;2023-04-06T11:46:59;11.90;;;3.35;;
48963;SDS011;34776;48.180;16.420;2023-04-06T11:49:32;6.28;;;3.30;;
48963;SDS011;34776;48.180;16.420;2023-04-06T11:52:01;9.95;;;3.75;;
48963;SDS011;34776;48.180;16.420;2023-04-06T11:54:34;11.68;;;3.15;;
48963;SDS011;34776;48.180;16.420;2023-04-06T11:57:01;7.07;;;3.22;;
48963;SDS011;34776;48.180;16.420;2023-04-06T11:59:27;6.72;;;4.38;;
48963;SDS011;34776;48.180;16.420;2023-04-06T12:01:53;115.75;;;7.68;;
48963;SDS011;34776;48.180;16.420;2023-04-06T12:04:19;24.45;;;4.00;;
48963;SDS011;34776;48.180;16.420;2023-04-06T12:06:45;102.50;;;6.75;;
48963;SDS011;34776;48.180;16.420;2023-04-06T12:09:10;40.15;;;5.13;;
48963;SDS011;34776;48.180;16.420;2023-04-06T12:11:36;14.48;;;2.63;;
48963;SDS011;34776;48.180;16.420;2023-04-06T12:14:01;20.10;;;3.65;;
48963;SDS011;34776;48.180;16.420;2023-04-06T12:16:31;3.90;;;2.70;;
48963;SDS011;34776;48.180;16.420;2023-04-06T12:18:56;8.65;;;2.90;;
48963;SDS011;34776;48.180;16.420;2023-04-06T12:21:22;36.00;;;4.25;;
48963;SDS011;34776;48.180;16.420;2023-04-06T12:23:47;38.83;;;4.45;;
48963;SDS011;34776;48.180;16.420;2023-04-06T12:26:13;34.90;;;5.38;;
48963;SDS011;34776;48.180;16.420;2023-04-06T12:28:38;10.07;;;4.88;;
48963;SDS011;34776;48.180;16.420;2023-04-06T12:31:03;5.80;;;3.03;;
48963;SDS011;34776;48.180;16.420;2023-04-06T12:33:29;4.95;;;2.83;;
48963;SDS011;34776;48.180;16.420;2023-04-06T12:35:54;7.90;;;2.90;;
48963;SDS011;34776;48.180;16.420;2023-04-06T12:38:20;14.50;;;2.97;;
48963;SDS011;34776;48.180;16.420;2023-04-06T12:40:46;7.57;;;3.17;;
48963;SDS011;34776;48.180;16.420;2023-04-06T12:43:11;25.15;;;3.55;;
48963;SDS011;34776;48.180;16.420;2023-04-06T12:45:38;18.55;;;3.17;;
48963;SDS011;34776;48.180;16.420;2023-04-06T12:48:05;9.18;;;2.60;;
48963;SDS011;34776;48.180;16.420;2023-04-06T12:50:30;32.05;;;4.72;;
48963;SDS011;34776;48.180;16.420;2023-04-06T12:52:56;14.05;;;3.38;;
48963;SDS011;34776;48.180;16.420;2023-04-06T12:55:21;31.23;;;3.85;;
48963;SDS011;34776;48.180;16.420;2023-04-06T12:57:47;7.57;;;2.50;;
48963;SDS011;34776;48.180;16.420;2023-04-06T13:00:12;22.75;;;3.30;;
48963;SDS011;34776;48.180;16.420;2023-04-06T13:02:39;22.75;;;4.85;;
48963;SDS011;34776;48.180;16.420;2023-04-06T13:05:05;14.23;;;3.50;;
48963;SDS011;34776;48.180;16.420;2023-04-06T13:07:31;9.15;;;3.28;;
48963;SDS011;34776;48.180;16.420;2023-04-06T13:09:56;15.82;;;3.42;;
48963;SDS011;34776;48.180;16.420;2023-04-06T13:12:21;19.33;;;3.38;;
48963;SDS011;34776;48.180;16.420;2023-04-06T13:14:47;23.98;;;4.35;;
48963;SDS011;34776;48.180;16.420;2023-04-06T13:17:16;16.80;;;3.22;;
48963;SDS011;34776;48.180;16.420;2023-04-06T13:19:42;5.10;;;3.35;;
48963;SDS011;34776;48.180;16.420;2023-04-06T13:22:08;10.38;;;2.83;;
48963;SDS011;34776;48.180;16.420;2023-04-06T13:24:33;12.77;;;3.22;;
48963;SDS011;34776;48.180;16.420;2023-04-06T13:26:59;11.90;;;3.30;;
48963;SDS011;34776;48.180;16.420;2023-04-06T13:29:25;23.85;;;3.80;;
48963;SDS011;34776;48.180;16.420;2023-04-06T13:31:51;8.98;;;4.00;;
48963;SDS011;34776;48.180;16.420;2023-04-06T13:34:16;8.68;;;3.08;;
48963;SDS011;34776;48.180;16.420;2023-04-06T13:36:42;13.20;;;3.00;;
48963;SDS011;34776;48.180;16.420;2023-04-06T13:39:08;4.50;;;2.67;;
48963;SDS011;34776;48.180;16.420;2023-04-06T13:41:33;13.95;;;4.10;;
48963;SDS011;34776;48.180;16.420;2023-04-06T13:43:58;6.22;;;3.55;;
48963;SDS011;34776;48.180;16.420;2023-04-06T13:46:24;7.00;;;3.67;;
48963;SDS011;34776;48.180;16.420;2023-04-06T13:48:49;5.85;;;2.83;;
48963;SDS011;34776;48.180;16.420;2023-04-06T13:51:15;3.20;;;2.80;;
48963;SDS011;34776;48.180;16.420;2023-04-06T13:53:41;13.32;;;3.15;;
48963;SDS011;34776;48.180;16.420;2023-04-06T13:56:07;8.23;;;3.55;;
48963;SDS011;34776;48.180;16.420;2023-04-06T13:58:33;10.45;;;2.78;;
48963;SDS011;34776;48.180;16.420;2023-04-06T14:01:06;8.35;;;3.60;;
48963;SDS011;34776;48.180;16.420;2023-04-06T14:03:32;7.30;;;3.20;;
48963;SDS011;34776;48.180;16.420;2023-04-06T14:05:58;17.75;;;3.50;;
48963;SDS011;34776;48.180;16.420;2023-04-06T14:08:23;4.78;;;2.78;;
48963;SDS011;34776;48.180;16.420;2023-04-06T14:10:48;8.57;;;3.33;;
48963;SDS011;34776;48.180;16.420;2023-04-06T14:13:14;21.65;;;3.45;;
48963;SDS011;34776;48.180;16.420;2023-04-06T14:15:40;7.38;;;3.50;;
48963;SDS011;34776;48.180;16.420;2023-04-06T14:18:05;5.35;;;3.10;;
48963;SDS011;34776;48.180;16.420;2023-04-06T14:20:31;7.30;;;3.33;;
48963;SDS011;34776;48.180;16.420;2023-04-06T14:22:59;26.83;;;4.47;;
48963;SDS011;34776;48.180;16.420;2023-04-06T14:25:27;14.70;;;3.50;;